createdAt,value
2023-03-31T00:01:21.474Z,2.63
2023-03-31T00:03:49.307Z,2.33
2023-03-31T00:06:19.276Z,2.43
2023-03-31T00:08:51.615Z,2.50
2023-03-31T00:11:20.460Z,2.30
2023-03-31T00:13:48.181Z,2.47
2023-03-31T00:16:16.349Z,2.27
2023-03-31T00:18:47.210Z,2.30
2023-03-31T00:21:24.777Z,2.30
2023-03-31T00:23:54.889Z,2.40
2023-03-31T00:26:23.181Z,2.23
2023-03-31T00:28:51.349Z,2.20
2023-03-31T00:31:19.921Z,1.93
2023-03-31T00:33:47.887Z,2.17
2023-03-31T00:36:21.312Z,2.50
2023-03-31T00:38:49.328Z,2.03
2023-03-31T00:41:18.709Z,2.10
2023-03-31T00:44:06.597Z,2.10
2023-03-31T00:46:36.954Z,2.00
2023-03-31T00:49:11.173Z,2.33
2023-03-31T00:51:39.252Z,2.40
2023-03-31T00:54:09.392Z,2.10
2023-03-31T00:56:42.669Z,2.10
2023-03-31T00:59:13.169Z,2.27
2023-03-31T01:01:43.369Z,2.20
2023-03-31T01:04:13.617Z,2.10
2023-03-31T01:06:50.348Z,2.20
2023-03-31T01:09:18.208Z,2.17
2023-03-31T01:11:48.592Z,2.20
2023-03-31T01:14:16.439Z,1.97
2023-03-31T01:16:44.198Z,2.20
2023-03-31T01:19:21.754Z,2.30
2023-03-31T01:22:18.446Z,1.87
2023-03-31T01:25:28.235Z,2.10
2023-03-31T01:28:18.162Z,1.70
2023-03-31T01:31:37.006Z,1.73
2023-03-31T01:34:27.212Z,1.83
2023-03-31T01:37:21.216Z,1.90
2023-03-31T01:40:16.392Z,2.00
2023-03-31T01:42:53.480Z,2.20
2023-03-31T01:45:34.186Z,2.10
2023-03-31T01:48:08.035Z,2.33
2023-03-31T01:50:39.529Z,1.93
2023-03-31T01:53:16.779Z,1.80
2023-03-31T01:55:51.894Z,2.10
2023-03-31T01:58:22.457Z,2.30
2023-03-31T02:00:57.100Z,2.23
2023-03-31T02:03:30.909Z,1.90
2023-03-31T02:06:04.188Z,2.00
2023-03-31T02:08:37.212Z,2.60
2023-03-31T02:11:06.451Z,2.20
2023-03-31T02:13:35.947Z,1.90
2023-03-31T02:16:09.620Z,1.90
2023-03-31T02:18:41.707Z,2.00
2023-03-31T02:21:10.820Z,2.37
2023-03-31T02:23:39.720Z,1.90
2023-03-31T02:26:13.722Z,2.00
2023-03-31T02:28:41.984Z,1.90
2023-03-31T02:31:22.766Z,2.03
2023-03-31T02:33:50.768Z,1.70
2023-03-31T02:36:19.579Z,1.80
2023-03-31T02:38:51.163Z,1.87
2023-03-31T02:41:20.361Z,1.50
2023-03-31T02:43:48.197Z,1.93
2023-03-31T02:46:15.950Z,1.90
2023-03-31T02:48:49.201Z,1.70
2023-03-31T02:51:36.823Z,1.93
2023-03-31T02:54:31.204Z,1.83
2023-03-31T02:57:32.961Z,2.17
2023-03-31T03:00:09.589Z,2.40
2023-03-31T03:02:50.976Z,2.20
2023-03-31T03:05:26.074Z,2.00
2023-03-31T03:08:03.197Z,2.13
2023-03-31T03:10:40.665Z,3.10
2023-03-31T03:13:16.542Z,2.20
2023-03-31T03:15:48.656Z,2.17
2023-03-31T03:18:16.865Z,2.30
2023-03-31T03:20:48.525Z,2.40
2023-03-31T03:23:16.771Z,1.90
2023-03-31T03:25:44.943Z,2.03
2023-03-31T03:28:14.014Z,2.30
2023-03-31T03:30:41.731Z,2.10
2023-03-31T03:33:09.938Z,2.10
2023-03-31T03:35:37.833Z,2.43
2023-03-31T03:38:05.685Z,2.40
2023-03-31T03:40:33.419Z,2.13
2023-03-31T03:43:01.147Z,2.07
2023-03-31T03:45:30.481Z,2.63
2023-03-31T03:47:58.282Z,2.10
2023-03-31T03:50:26.134Z,2.27
2023-03-31T03:52:53.853Z,2.00
2023-03-31T03:55:21.561Z,1.83
2023-03-31T03:57:49.306Z,1.80
2023-03-31T04:00:17.306Z,1.87
2023-03-31T04:02:47.143Z,2.40
2023-03-31T04:05:14.989Z,2.10
2023-03-31T04:07:42.780Z,2.63
2023-03-31T04:10:10.950Z,2.43
2023-03-31T04:12:38.736Z,3.07
2023-03-31T04:15:08.467Z,2.40
2023-03-31T04:17:36.876Z,2.67
2023-03-31T04:20:09.391Z,2.47
2023-03-31T04:22:40.488Z,2.43
2023-03-31T04:25:14.712Z,2.50
2023-03-31T04:27:46.622Z,2.60
2023-03-31T04:30:22.938Z,2.70
2023-03-31T04:32:53.498Z,3.10
2023-03-31T04:35:23.186Z,3.40
2023-03-31T04:37:58.709Z,2.73
2023-03-31T04:40:26.839Z,2.40
2023-03-31T04:42:54.596Z,2.90
2023-03-31T04:45:22.346Z,2.57
2023-03-31T04:47:50.108Z,2.53
2023-03-31T04:50:18.094Z,2.50
2023-03-31T04:52:47.142Z,2.80
2023-03-31T04:55:14.891Z,3.10
2023-03-31T04:57:43.085Z,2.90
2023-03-31T05:00:12.005Z,3.27
2023-03-31T05:02:39.796Z,2.93
2023-03-31T05:05:07.986Z,3.00
2023-03-31T05:07:35.754Z,2.53
2023-03-31T05:10:05.602Z,2.80
2023-03-31T05:12:35.960Z,3.13
2023-03-31T05:15:03.956Z,2.87
2023-03-31T05:17:32.943Z,2.57
2023-03-31T05:20:01.100Z,2.43
2023-03-31T05:22:29.160Z,2.47
2023-03-31T05:24:56.883Z,2.60
2023-03-31T05:27:25.979Z,2.57
2023-03-31T05:29:53.669Z,2.70
2023-03-31T05:32:21.574Z,2.47
2023-03-31T05:34:52.120Z,2.33
2023-03-31T05:37:21.020Z,2.33
2023-03-31T05:39:48.690Z,2.27
2023-03-31T05:42:16.457Z,2.17
2023-03-31T05:44:45.708Z,2.30
2023-03-31T05:47:13.933Z,2.20
2023-03-31T05:49:41.930Z,2.40
2023-03-31T05:52:10.936Z,2.00
2023-03-31T05:54:38.924Z,2.33
2023-03-31T05:57:06.702Z,2.90
2023-03-31T05:59:36.146Z,2.40
2023-03-31T06:02:05.867Z,2.50
2023-03-31T06:04:33.678Z,2.40
2023-03-31T06:07:01.514Z,2.37
2023-03-31T06:09:29.500Z,2.10
2023-03-31T06:11:57.343Z,2.67
2023-03-31T06:14:25.097Z,2.00
2023-03-31T06:16:52.787Z,2.00
2023-03-31T06:19:21.969Z,2.30
2023-03-31T06:21:49.699Z,2.53
2023-03-31T06:24:17.534Z,2.43
2023-03-31T06:26:45.325Z,2.40
2023-03-31T06:29:13.018Z,2.47
2023-03-31T06:31:40.868Z,2.27
2023-03-31T06:34:08.663Z,2.17
2023-03-31T06:36:38.790Z,2.30
2023-03-31T06:39:06.550Z,2.30
2023-03-31T06:41:34.270Z,2.20
2023-03-31T06:44:02.007Z,2.50
2023-03-31T06:46:29.775Z,2.50
2023-03-31T06:48:57.552Z,2.63
2023-03-31T06:51:25.472Z,2.47
2023-03-31T06:53:54.520Z,2.20
2023-03-31T06:56:22.224Z,2.00
2023-03-31T06:58:49.992Z,2.10
2023-03-31T07:01:17.733Z,2.30
2023-03-31T07:03:45.665Z,2.33
2023-03-31T07:06:13.420Z,2.07
2023-03-31T07:08:41.157Z,3.00
2023-03-31T07:11:10.472Z,2.13
2023-03-31T07:13:38.481Z,2.37
2023-03-31T07:16:08.017Z,1.97
2023-03-31T07:18:36.664Z,2.10
2023-03-31T07:21:09.011Z,1.67
2023-03-31T07:23:39.187Z,2.00
2023-03-31T07:26:06.983Z,2.00
2023-03-31T07:28:36.457Z,2.00
2023-03-31T07:31:04.626Z,2.17
2023-03-31T07:33:32.620Z,1.67
2023-03-31T07:36:10.740Z,2.15
2023-03-31T07:38:39.521Z,2.10
2023-03-31T07:41:10.994Z,1.77
2023-03-31T07:43:40.576Z,2.17
2023-03-31T07:46:14.333Z,1.77
2023-03-31T07:48:42.089Z,2.17
2023-03-31T07:51:09.827Z,1.90
2023-03-31T07:53:38.187Z,1.80
2023-03-31T07:56:06.338Z,1.83
2023-03-31T07:58:34.110Z,2.05
2023-03-31T08:01:03.470Z,2.13
2023-03-31T08:03:32.025Z,1.80
2023-03-31T08:05:59.869Z,2.35
2023-03-31T08:08:27.766Z,1.73
2023-03-31T08:10:55.493Z,1.70
2023-03-31T08:13:23.269Z,2.15
2023-03-31T08:15:51.029Z,1.83
2023-03-31T08:18:20.381Z,2.00
2023-03-31T08:20:49.998Z,1.98
2023-03-31T08:23:17.753Z,2.03
2023-03-31T08:25:45.777Z,1.92
2023-03-31T08:28:14.075Z,1.88
2023-03-31T08:30:42.382Z,1.95
2023-03-31T08:33:12.274Z,1.52
2023-03-31T08:35:41.571Z,3.03
2023-03-31T08:38:09.287Z,1.75
2023-03-31T08:40:40.878Z,1.70
2023-03-31T08:43:16.497Z,1.60
2023-03-31T08:45:47.701Z,2.03
2023-03-31T08:48:25.619Z,1.60
2023-03-31T08:50:59.432Z,2.00
2023-03-31T08:53:31.086Z,1.90
2023-03-31T08:56:00.030Z,2.10
2023-03-31T08:58:37.093Z,1.60
2023-03-31T09:01:13.901Z,1.60
2023-03-31T09:03:50.598Z,1.80
2023-03-31T09:06:23.439Z,2.00
2023-03-31T09:08:52.973Z,1.60
2023-03-31T09:11:28.565Z,1.63
2023-03-31T09:14:12.693Z,1.90
2023-03-31T09:16:48.709Z,2.38
2023-03-31T09:19:20.826Z,1.95
2023-03-31T09:21:52.650Z,2.00
2023-03-31T09:24:23.996Z,1.80
2023-03-31T09:26:55.049Z,1.90
2023-03-31T09:29:29.554Z,2.10
2023-03-31T09:32:03.016Z,2.00
2023-03-31T09:34:33.086Z,2.20
2023-03-31T09:37:02.159Z,2.10
2023-03-31T09:39:29.958Z,2.22
2023-03-31T09:41:57.704Z,1.98
2023-03-31T09:44:37.637Z,2.05
2023-03-31T09:47:10.922Z,2.08
2023-03-31T09:49:40.439Z,2.10
2023-03-31T09:52:30.561Z,1.83
2023-03-31T09:55:02.196Z,1.63
2023-03-31T09:57:34.475Z,1.63
2023-03-31T10:00:16.164Z,1.52
2023-03-31T10:02:46.018Z,1.63
2023-03-31T10:05:29.153Z,1.50
2023-03-31T10:08:23.272Z,1.95
2023-03-31T10:10:53.628Z,1.63
2023-03-31T10:13:24.336Z,1.60
2023-03-31T10:15:57.227Z,1.73
2023-03-31T10:18:34.596Z,1.70
2023-03-31T10:21:04.900Z,1.65
2023-03-31T10:23:35.763Z,1.80
2023-03-31T10:26:05.496Z,1.88
2023-03-31T10:28:36.059Z,1.83
2023-03-31T10:31:05.051Z,1.73
2023-03-31T10:33:34.895Z,2.33
2023-03-31T10:36:08.992Z,1.80
2023-03-31T10:38:42.623Z,2.08
2023-03-31T10:41:11.142Z,1.85
2023-03-31T10:43:42.149Z,1.90
2023-03-31T10:46:10.641Z,2.10
2023-03-31T10:48:41.082Z,2.28
2023-03-31T10:51:15.877Z,2.28
2023-03-31T10:53:46.418Z,1.95
2023-03-31T10:56:36.192Z,2.38
2023-03-31T10:59:20.058Z,1.80
2023-03-31T11:02:00.585Z,1.90
2023-03-31T11:04:43.317Z,2.05
2023-03-31T11:07:21.562Z,2.03
2023-03-31T11:09:57.791Z,2.53
2023-03-31T11:12:32.493Z,2.15
2023-03-31T11:15:11.757Z,2.10
2023-03-31T11:18:04.211Z,2.00
2023-03-31T11:20:40.696Z,2.45
2023-03-31T11:23:16.738Z,2.17
2023-03-31T11:25:54.273Z,2.22
2023-03-31T11:28:39.216Z,1.98
2023-03-31T11:31:28.644Z,2.00
2023-03-31T11:34:17.669Z,2.20
2023-03-31T11:37:02.431Z,2.17
2023-03-31T11:39:44.401Z,2.50
2023-03-31T11:42:19.097Z,2.53
2023-03-31T11:44:53.018Z,2.75
2023-03-31T11:47:25.047Z,2.10
2023-03-31T11:49:56.346Z,2.55
2023-03-31T11:52:30.541Z,2.40
2023-03-31T11:55:03.347Z,2.33
2023-03-31T11:57:38.736Z,2.28
2023-03-31T12:00:13.400Z,1.75
2023-03-31T12:02:49.963Z,2.00
2023-03-31T12:05:19.160Z,1.20
2023-03-31T12:07:53.298Z,1.20
2023-03-31T12:10:23.697Z,2.30
2023-03-31T12:13:03.004Z,1.70
2023-03-31T12:15:34.650Z,1.17
2023-03-31T12:18:11.356Z,1.50
2023-03-31T12:20:43.659Z,1.63
2023-03-31T12:23:16.379Z,1.58
2023-03-31T12:25:53.901Z,2.10
2023-03-31T12:28:24.974Z,2.40
2023-03-31T12:30:54.926Z,2.40
2023-03-31T12:33:27.099Z,2.58
2023-03-31T12:36:08.547Z,2.20
2023-03-31T12:38:47.775Z,2.70
2023-03-31T12:41:20.979Z,2.40
2023-03-31T12:44:10.260Z,2.10
2023-03-31T12:46:51.696Z,2.40
2023-03-31T12:49:36.959Z,2.00
2023-03-31T12:52:08.269Z,1.73
2023-03-31T12:55:03.712Z,1.80
2023-03-31T12:57:31.530Z,1.93
2023-03-31T13:00:22.593Z,1.97
2023-03-31T13:02:51.419Z,2.20
2023-03-31T13:05:48.600Z,2.27
2023-03-31T13:08:51.455Z,3.30
2023-03-31T13:11:20.367Z,2.17
2023-03-31T13:14:00.867Z,2.23
2023-03-31T13:16:30.886Z,2.10
2023-03-31T13:18:58.911Z,1.90
2023-03-31T13:21:27.099Z,2.17
2023-03-31T13:24:00.163Z,2.20
2023-03-31T13:26:38.948Z,1.87
2023-03-31T13:29:44.773Z,2.00
2023-03-31T13:32:23.049Z,2.27
2023-03-31T13:34:57.529Z,2.00
2023-03-31T13:37:47.389Z,2.50
2023-03-31T13:40:52.641Z,2.00
2023-03-31T13:43:46.737Z,2.37
2023-03-31T13:46:36.631Z,2.23
2023-03-31T13:49:17.511Z,1.90
2023-03-31T13:51:55.476Z,1.50
2023-03-31T13:54:54.971Z,1.70
2023-03-31T13:57:50.030Z,1.60
2023-03-31T14:00:31.160Z,1.77
2023-03-31T14:03:13.529Z,2.17
2023-03-31T14:05:44.776Z,1.50
2023-03-31T14:08:16.096Z,1.67
2023-03-31T14:10:44.881Z,2.80
2023-03-31T14:13:15.295Z,1.80
2023-03-31T14:15:50.077Z,1.63
2023-03-31T14:18:22.380Z,2.30
2023-03-31T14:20:59.685Z,1.70
2023-03-31T14:23:36.820Z,1.67
2023-03-31T14:26:08.165Z,1.67
2023-03-31T14:28:58.306Z,2.73
2023-03-31T14:31:35.445Z,1.60
2023-03-31T14:34:19.455Z,1.73
2023-03-31T14:36:57.915Z,2.30
2023-03-31T14:39:29.999Z,1.50
2023-03-31T14:42:01.565Z,1.63
2023-03-31T14:44:30.494Z,1.43
2023-03-31T14:46:58.987Z,1.57
2023-03-31T14:49:28.560Z,1.73
2023-03-31T14:52:03.359Z,1.70
2023-03-31T14:54:37.767Z,1.63
2023-03-31T14:57:06.508Z,1.80
2023-03-31T14:59:37.479Z,1.50
2023-03-31T15:02:12.361Z,1.67
2023-03-31T15:04:45.212Z,1.60
2023-03-31T15:07:14.803Z,1.70
2023-03-31T15:09:49.540Z,1.87
2023-03-31T15:12:19.543Z,2.00
2023-03-31T15:14:50.172Z,2.10
2023-03-31T15:17:23.360Z,2.33
2023-03-31T15:19:59.228Z,2.40
2023-03-31T15:22:30.684Z,2.40
2023-03-31T15:24:58.728Z,2.73
2023-03-31T15:30:24.744Z,2.43
2023-03-31T15:32:56.829Z,2.60
2023-03-31T15:35:32.025Z,2.20
2023-03-31T15:38:18.383Z,2.00
2023-03-31T15:40:50.641Z,2.30
2023-03-31T15:43:25.909Z,2.07
2023-03-31T15:45:55.646Z,2.30
2023-03-31T15:48:28.317Z,2.27
2023-03-31T15:51:01.278Z,2.00
2023-03-31T15:53:37.988Z,1.70
2023-03-31T15:56:06.822Z,1.80
2023-03-31T15:58:53.822Z,2.13
2023-03-31T16:01:21.715Z,2.27
2023-03-31T16:03:49.808Z,2.20
2023-03-31T16:06:23.467Z,2.10
2023-03-31T16:08:58.344Z,2.00
2023-03-31T16:11:29.127Z,1.93
2023-03-31T16:14:00.850Z,2.00
2023-03-31T16:16:30.838Z,1.93
2023-03-31T16:19:05.010Z,2.03
2023-03-31T16:21:37.788Z,2.47
2023-03-31T16:24:07.806Z,2.00
2023-03-31T16:26:37.310Z,2.30
2023-03-31T16:29:06.611Z,2.03
2023-03-31T16:31:37.229Z,2.27
2023-03-31T16:34:07.516Z,2.17
2023-03-31T16:36:35.911Z,1.90
2023-03-31T16:39:05.175Z,2.40
2023-03-31T16:41:35.883Z,2.20
2023-03-31T16:44:04.462Z,2.57
2023-03-31T16:46:32.364Z,2.40
2023-03-31T16:49:00.303Z,2.57
2023-03-31T16:51:28.134Z,2.37
2023-03-31T16:53:58.446Z,2.43
2023-03-31T16:56:27.685Z,2.40
2023-03-31T16:58:57.348Z,2.20
2023-03-31T17:01:25.453Z,2.60
2023-03-31T17:03:53.387Z,2.20
2023-03-31T17:06:21.278Z,2.30
2023-03-31T17:09:03.647Z,2.10
2023-03-31T17:11:34.121Z,2.27
2023-03-31T17:14:05.266Z,2.40
2023-03-31T17:19:20.760Z,2.40
2023-03-31T17:21:49.465Z,2.80
2023-03-31T17:24:17.262Z,2.80
2023-03-31T17:26:45.720Z,2.80
2023-03-31T17:29:16.639Z,2.73
2023-03-31T17:31:44.645Z,2.70
2023-03-31T17:34:13.386Z,2.60
2023-03-31T17:36:44.105Z,2.40
2023-03-31T17:39:12.098Z,2.70
2023-03-31T17:41:41.887Z,2.70
2023-03-31T17:44:09.819Z,2.70
2023-03-31T17:46:39.195Z,3.07
2023-03-31T17:49:07.189Z,2.80
2023-03-31T17:51:36.401Z,2.77
2023-03-31T17:54:04.426Z,3.00
2023-03-31T17:56:32.186Z,3.40
2023-03-31T17:58:59.947Z,3.60
2023-03-31T18:01:28.002Z,3.17
2023-03-31T18:03:58.361Z,3.23
2023-03-31T18:06:26.291Z,3.50
2023-03-31T18:08:54.300Z,3.80
2023-03-31T18:11:22.063Z,3.40
2023-03-31T18:13:50.059Z,3.90
2023-03-31T18:16:18.379Z,3.90
2023-03-31T18:18:46.298Z,4.47
2023-03-31T18:21:15.564Z,3.73
2023-03-31T18:23:43.403Z,4.17
2023-03-31T18:26:13.170Z,3.70
2023-03-31T18:28:41.671Z,4.17
2023-03-31T18:31:10.686Z,5.13
2023-03-31T18:33:38.583Z,4.03
2023-03-31T18:36:07.133Z,3.70
2023-03-31T18:38:37.076Z,4.03
2023-03-31T18:41:05.199Z,4.40
2023-03-31T18:43:33.481Z,4.60
2023-03-31T18:46:01.600Z,5.27
2023-03-31T18:48:29.599Z,5.10
2023-03-31T18:50:57.546Z,4.90
2023-03-31T18:53:26.158Z,5.47
2023-03-31T18:55:57.425Z,5.40
2023-03-31T18:58:25.977Z,6.07
2023-03-31T19:00:53.783Z,5.00
2023-03-31T19:03:22.216Z,5.47
2023-03-31T19:05:50.653Z,5.57
2023-03-31T19:08:18.399Z,5.80
2023-03-31T19:10:46.244Z,6.00
2023-03-31T19:13:16.874Z,5.50
2023-03-31T19:15:44.741Z,5.60
2023-03-31T19:18:14.536Z,5.90
2023-03-31T19:20:42.299Z,5.80
2023-03-31T19:23:10.114Z,6.63
2023-03-31T19:25:37.832Z,5.60
2023-03-31T19:28:05.597Z,4.63
2023-03-31T19:30:35.179Z,4.73
2023-03-31T19:33:03.614Z,4.00
2023-03-31T19:35:31.908Z,4.50
2023-03-31T19:37:59.777Z,4.33
2023-03-31T19:40:28.174Z,4.30
2023-03-31T19:42:56.171Z,4.27
2023-03-31T19:45:23.917Z,3.63
2023-03-31T19:47:52.992Z,2.87
2023-03-31T19:50:20.765Z,3.33
2023-03-31T19:52:49.975Z,2.70
2023-03-31T19:55:17.942Z,2.57
2023-03-31T19:57:45.986Z,2.37
2023-03-31T20:00:18.260Z,2.87
2023-03-31T20:02:46.305Z,2.50
2023-03-31T20:05:15.505Z,2.63
2023-03-31T20:07:43.222Z,2.50
2023-03-31T20:10:13.865Z,2.20
2023-03-31T20:12:42.137Z,2.60
2023-03-31T20:15:10.080Z,2.07
2023-03-31T20:17:38.639Z,2.50
2023-03-31T20:20:08.134Z,2.17
2023-03-31T20:22:37.238Z,1.93
2023-03-31T20:25:06.491Z,2.20
2023-03-31T20:27:34.252Z,1.90
2023-03-31T20:30:01.951Z,2.00
2023-03-31T20:32:29.700Z,1.87
2023-03-31T20:34:57.990Z,1.80
2023-03-31T20:37:25.767Z,1.97
2023-03-31T20:39:55.046Z,1.70
2023-03-31T20:42:22.832Z,2.40
2023-03-31T20:44:50.561Z,2.30
2023-03-31T20:47:18.401Z,2.00
2023-03-31T20:49:46.569Z,2.73
2023-03-31T20:52:14.380Z,2.50
2023-03-31T20:54:42.370Z,2.50
2023-03-31T20:57:11.703Z,2.50
2023-03-31T20:59:39.724Z,2.60
2023-03-31T21:02:07.678Z,2.50
2023-03-31T21:04:35.464Z,3.20
2023-03-31T21:07:03.196Z,2.70
2023-03-31T21:09:31.104Z,2.50
2023-03-31T21:11:58.807Z,3.03
2023-03-31T21:14:27.856Z,3.20
2023-03-31T21:16:55.588Z,2.73
2023-03-31T21:19:23.336Z,3.00
2023-03-31T21:21:51.060Z,2.93
2023-03-31T21:24:18.810Z,2.80
2023-03-31T21:26:46.540Z,2.80
2023-03-31T21:29:14.246Z,3.27
2023-03-31T21:31:45.023Z,2.50
2023-03-31T21:34:12.845Z,2.67
2023-03-31T21:36:40.608Z,2.73
2023-03-31T21:39:09.662Z,2.60
2023-03-31T21:41:39.790Z,2.50
2023-03-31T21:44:08.862Z,2.50
2023-03-31T21:46:36.734Z,3.03
2023-03-31T21:49:06.274Z,2.70
2023-03-31T21:51:34.008Z,2.53
2023-03-31T21:54:01.917Z,2.53
2023-03-31T21:56:31.930Z,2.77
2023-03-31T21:59:00.429Z,2.70
2023-03-31T22:01:28.203Z,2.87
2023-03-31T22:03:55.942Z,2.80
2023-03-31T22:06:24.976Z,2.77
2023-03-31T22:08:52.734Z,2.80
2023-03-31T22:11:20.502Z,2.50
2023-03-31T22:13:48.213Z,2.57
2023-03-31T22:16:18.389Z,2.33
2023-03-31T22:18:47.039Z,2.47
2023-03-31T22:21:17.033Z,2.47
2023-03-31T22:23:46.318Z,2.37
2023-03-31T22:26:14.052Z,2.13
2023-03-31T22:28:42.011Z,2.50
2023-03-31T22:31:09.816Z,2.63
2023-03-31T22:33:37.602Z,2.50
2023-03-31T22:36:06.095Z,2.40
2023-03-31T22:38:34.115Z,2.30
2023-03-31T22:41:03.202Z,2.87
2023-03-31T22:43:31.083Z,2.80
2023-03-31T22:46:02.592Z,2.80
2023-03-31T22:48:30.311Z,2.80
2023-03-31T22:50:58.620Z,3.70
2023-03-31T22:53:26.492Z,2.50
2023-03-31T22:55:54.745Z,2.63
2023-03-31T22:58:23.938Z,3.00
2023-03-31T23:00:57.267Z,2.60
2023-03-31T23:03:25.578Z,2.70
2023-03-31T23:05:53.658Z,2.80
2023-03-31T23:08:21.440Z,3.03
2023-03-31T23:10:55.684Z,3.10
2023-03-31T23:13:25.462Z,2.87
2023-03-31T23:15:53.394Z,3.00
2023-03-31T23:18:22.008Z,2.90
2023-03-31T23:20:49.956Z,3.07
2023-03-31T23:23:17.719Z,3.23
2023-03-31T23:25:45.532Z,3.37
2023-03-31T23:28:13.565Z,3.30
2023-03-31T23:30:42.622Z,3.30
2023-03-31T23:33:10.352Z,2.87
2023-03-31T23:35:38.072Z,3.10
2023-03-31T23:38:06.337Z,2.70
2023-03-31T23:40:34.107Z,3.00
2023-03-31T23:43:01.834Z,2.80
2023-03-31T23:45:29.752Z,2.97
2023-03-31T23:47:59.093Z,2.80
2023-03-31T23:50:28.176Z,2.60
2023-03-31T23:52:59.366Z,2.50
2023-03-31T23:55:27.405Z,2.90
2023-03-31T23:57:55.526Z,2.67
